createdAt,value
2018-09-25T00:12:59.733Z,7.7
2018-09-25T00:28:09.467Z,7.6
2018-09-25T00:43:27.853Z,7.6
2018-09-25T00:58:39.931Z,7.5
2018-09-25T01:13:53.506Z,7.4
2018-09-25T01:29:06.596Z,7.3
2018-09-25T01:44:20.063Z,7.3
2018-09-25T01:59:33.108Z,7.2
2018-09-25T02:14:47.295Z,7.2
2018-09-25T02:29:59.644Z,7.1
2018-09-25T02:45:09.685Z,7
2018-09-25T03:00:26.730Z,6.9
2018-09-25T03:15:39.514Z,6.9
2018-09-25T03:30:52.353Z,6.9
2018-09-25T03:45:55.303Z,6.8
2018-09-25T04:01:18.529Z,6.8
2018-09-25T04:16:31.740Z,6.7
2018-09-25T04:31:44.733Z,6.7
2018-09-25T04:46:57.538Z,6.7
2018-09-25T05:02:08.152Z,6.7
2018-09-25T05:17:23.579Z,6.7
2018-09-25T05:32:36.725Z,6.8
2018-09-25T05:47:49.656Z,6.9
2018-09-25T06:02:54.218Z,7
2018-09-25T06:18:16.076Z,7.2
2018-09-25T06:33:30.029Z,7.3
2018-09-25T06:48:42.704Z,7.7
2018-09-25T07:03:56.669Z,8
2018-09-25T07:19:09.875Z,8.3
2018-09-25T07:34:23.905Z,8.6
2018-09-25T07:49:37.380Z,9
2018-09-25T08:04:41.799Z,9.4
2018-09-25T08:20:05.720Z,9.5
2018-09-25T08:35:19.959Z,10
2018-09-25T08:50:34.039Z,10.4
2018-09-25T09:05:48.792Z,10.7
2018-09-25T09:21:03.397Z,11.2
2018-09-25T09:36:18.619Z,11.7
2018-09-25T09:51:33.537Z,11.7
2018-09-25T10:06:48.486Z,12.2
2018-09-25T10:22:00.035Z,12
2018-09-25T10:37:18.838Z,12.4
2018-09-25T10:52:34.312Z,13.1
2018-09-25T11:07:49.901Z,13.1
2018-09-25T11:22:55.484Z,13.2
2018-09-25T11:38:21.402Z,13.8
2018-09-25T11:53:39.715Z,14.1
2018-09-25T12:08:53.358Z,15.1
2018-09-25T12:24:11.043Z,15.4
2018-09-25T12:39:22.109Z,16.2
2018-09-25T12:54:53.247Z,16.8
2018-09-25T13:10:01.026Z,17.2
2018-09-25T13:25:19.294Z,16.6
2018-09-25T13:40:35.601Z,16.7
2018-09-25T13:55:51.598Z,16
2018-09-25T14:11:09.354Z,15.5
2018-09-25T14:26:25.407Z,14.8
2018-09-25T14:41:41.843Z,14.9
2018-09-25T14:56:57.988Z,15.1
2018-09-25T15:12:03.771Z,15.2
2018-09-25T15:27:31.496Z,15.9
2018-09-25T15:42:48.433Z,16
2018-09-25T15:58:05.543Z,16.6
2018-09-25T16:13:22.543Z,15.9
2018-09-25T16:28:31.811Z,15.1
2018-09-25T16:43:56.140Z,14.5
2018-09-25T16:59:12.495Z,13.9
2018-09-25T17:14:28.248Z,13.1
2018-09-25T17:29:43.336Z,12.6
2018-09-25T17:44:55.362Z,12.1
2018-09-25T18:00:14.318Z,11.8
2018-09-25T18:15:29.304Z,11.6
2018-09-25T18:30:43.781Z,11.2
2018-09-25T18:45:48.206Z,10.9
2018-09-25T19:01:13.430Z,10.5
2018-09-25T19:16:28.598Z,10.3
2018-09-25T19:31:43.319Z,10
2018-09-25T19:46:56.650Z,9.8
2018-09-25T20:27:52.122Z,8.9
2018-09-25T20:43:06.803Z,9.1
2018-09-25T20:58:20.665Z,9
2018-09-25T21:13:34.491Z,8.9
2018-09-25T21:28:41.105Z,8.8
2018-09-25T21:44:02.364Z,8.7
2018-09-25T21:59:16.140Z,8.5
2018-09-25T22:14:29.805Z,8.3
2018-09-25T22:29:43.893Z,8.1
2018-09-25T22:44:57.204Z,7.7
2018-09-25T23:00:10.436Z,8.3
2018-09-25T23:15:24.189Z,8.3
2018-09-25T23:30:38.463Z,8.1
2018-09-25T23:45:43.573Z,7.6
